Maupin, OR

7:14 PM PST on December 21, 2014 (GMT -0800)
RAWS HEHE 1 OR US | Change Station
CLOSE
Current Station
Personal Weather Station
Location: Maupin, OR
Elevation: 2679 ft
Nearby Weather Stations

Elev 2679 ft 44.96 °N, 121.50 °W | Updated 50 minutes ago

Mostly Cloudy
Mostly Cloudy
41 °F
Feels Like 38 °F
N
5
Wind Variable Wind from West
Gusts 13.0 mph

Today
High -- | Low -- °F
--% Chance of Precip.
Yesterday
High -- | Low -- °F
Precip. -- in
7:41 AM 4:26 PM
New Moon, 0% visible
Pressure 30.13 in
Visibility 10.0 miles
Clouds Overcast 4400 ft
Windchill 38 °F
Dew Point 38 °F
Humidity 90%
Rainfall 1.73 in
Snow Depth Not available.
UV 0 out of 12
Pollen .50 out of 12
Air Quality Not available.
Flu Activity Not available.
METAR KRDM 220256Z 33003KT 10SM OVC044 06/05 A3012 RMK AO2 RAE08B35E55 SLP203 P0001 60004 T00610050 53006

More Conditions Fewer Conditions

Pressure 30.13 in
Visibility 10.0 miles
Clouds Overcast 4400 ft
Windchill 38 °F
Dew Point 38 °F
Humidity 90%
Rainfall 1.73 in
Snow Depth Not available.
UV 0 out of 12
Pollen .50 out of 12
Air Quality Not available.
Flu Activity Not available.
METAR KRDM 220256Z 33003KT 10SM OVC044 06/05 A3012 RMK AO2 RAE08B35E55 SLP203 P0001 60004 T00610050 53006

More Conditions Fewer Conditions

10-Day Weather Forecast

Almanac

Astronomy

Dec. 21, 2014 Rise Set
Actual Time
Civil Twilight
Nautical Twilight
Astronomical Twilight
Moon
Length of Visible Light
Length of Day
Tomorrow will be .
, % of the Moon is Illuminated

Today's Extremes

State Highs State Lows

Community

WunderPhotos

Upload Photos

1,779,529 photos uploaded!

WunderBlogs® & News

Nearby

Air Quality

  Air Quality AQ Index Pollutant
Not available.

Snow Depth

Station Depth Elevation

Earthquake Activity

City Distance Mag. Time & Date
Minimum magnitude displayed is 2.5.

Coastal Water Temperatures

Place Temperature

Nearby Weather Stations